Time,TemperatureF,DewpointF,PressureIn,WindDirection,WindDirectionDegrees,WindSpeedMPH,WindSpeedGustMPH,Humidity,HourlyPrecipIn,Conditions,Clouds,dailyrainin,SoftwareType,DateUTC
2013-09-14 00:00:00,51.6,49.4,29.92,SW,232,0.0,0.0,92,0.00,,,0.00,Wunderground v.1.15,2013-09-14 04:00:00,
2013-09-14 00:05:00,51.6,49.4,29.92,West,280,0.0,0.0,92,0.00,,,0.00,Wunderground v.1.15,2013-09-14 04:05:00,
2013-09-14 00:10:00,51.6,49.4,29.92,SSE,153,0.0,0.0,92,0.00,,,0.00,Wunderground v.1.15,2013-09-14 04:10:00,
2013-09-14 00:15:00,51.6,49.4,29.92,NE,47,0.0,0.0,92,0.00,,,0.00,Wunderground v.1.15,2013-09-14 04:15:00,
2013-09-14 00:25:00,51.7,49.5,29.92,NNW,345,0.0,0.0,92,0.00,,,0.00,Wunderground v.1.15,2013-09-14 04:25:00,
2013-09-14 00:30:00,51.7,49.5,29.93,NE,44,0.0,1.0,92,0.00,,,0.00,Wunderground v.1.15,2013-09-14 04:30:00,
2013-09-14 00:40:00,52.0,49.7,29.93,SE,126,1.0,1.0,92,0.00,,,0.00,Wunderground v.1.15,2013-09-14 04:40:00,
2013-09-14 00:45:00,52.1,50.4,29.93,NNE,32,2.0,2.0,94,0.00,,,0.00,Wunderground v.1.15,2013-09-14 04:45:00,
2013-09-14 00:55:00,51.6,49.9,29.93,NW,304,2.0,3.0,94,0.00,,,0.01,Wunderground v.1.15,2013-09-14 04:55:00,
2013-09-14 01:00:00,51.1,49.4,29.94,ESE,123,2.0,2.0,94,0.09,,,0.02,Wunderground v.1.15,2013-09-14 05:00:00,
2013-09-14 01:10:00,51.0,49.9,29.93,ESE,113,2.0,4.0,96,0.05,,,0.02,Wunderground v.1.15,2013-09-14 05:10:00,
2013-09-14 01:15:00,51.0,49.6,29.93,WNW,295,1.0,4.0,95,0.04,,,0.02,Wunderground v.1.15,2013-09-14 05:15:00,
2013-09-14 01:25:00,50.7,49.6,29.94,West,271,1.0,1.0,96,0.18,,,0.06,Wunderground v.1.15,2013-09-14 05:25:00,
2013-09-14 01:30:00,50.6,49.5,29.94,NW,311,1.0,1.0,96,0.11,,,0.06,Wunderground v.1.15,2013-09-14 05:30:00,
2013-09-14 01:40:00,50.2,49.1,29.94,NNW,338,2.0,2.0,96,0.06,,,0.07,Wunderground v.1.15,2013-09-14 05:40:00,
2013-09-14 01:45:00,50.2,49.1,29.94,NNE,13,1.0,2.0,96,0.05,,,0.07,Wunderground v.1.15,2013-09-14 05:45:00,
2013-09-14 08:10:00,49.5,47.0,30.02,NNE,25,0.0,0.0,91,0.00,,,0.07,Wunderground v.1.15,2013-09-14 12:10:00,
2013-09-14 08:15:00,49.6,47.1,30.03,SE,129,0.0,0.0,91,0.00,,,0.07,Wunderground v.1.15,2013-09-14 12:15:00,
2013-09-14 08:25:00,49.8,47.3,30.03,East,99,0.0,0.0,91,0.00,,,0.07,Wunderground v.1.15,2013-09-14 12:25:00,
2013-09-14 08:30:00,49.8,47.0,30.03,ESE,105,0.0,0.0,90,0.00,,,0.07,Wunderground v.1.15,2013-09-14 12:30:00,
2013-09-14 08:40:00,49.9,46.8,30.03,East,97,0.0,0.0,89,0.00,,,0.07,Wunderground v.1.15,2013-09-14 12:40:00,
2013-09-14 08:45:00,50.0,46.9,30.04,ESE,103,0.0,0.0,89,0.00,,,0.07,Wunderground v.1.15,2013-09-14 12:45:00,
2013-09-14 08:55:00,50.1,47.0,30.04,ENE,75,0.0,0.0,89,0.00,,,0.07,Wunderground v.1.15,2013-09-14 12:55:00,
2013-09-14 09:00:00,50.1,46.7,30.04,ENE,75,0.0,0.0,88,0.00,,,0.07,Wunderground v.1.15,2013-09-14 13:00:00,
2013-09-14 09:10:00,50.3,47.2,30.04,East,81,0.0,0.0,89,0.00,,,0.07,Wunderground v.1.15,2013-09-14 13:10:00,
2013-09-14 09:20:00,50.3,46.3,30.05,ESE,115,0.0,0.0,86,0.00,,,0.07,Wunderground v.1.15,2013-09-14 13:20:00,
2013-09-14 09:30:00,50.5,46.2,30.06,East,88,0.0,0.0,85,0.00,,,0.07,Wunderground v.1.15,2013-09-14 13:30:00,
2013-09-14 09:40:00,50.6,46.3,30.06,East,85,0.0,0.0,85,0.00,,,0.07,Wunderground v.1.15,2013-09-14 13:40:00,
2013-09-14 09:50:00,50.7,46.0,30.06,WNW,302,0.0,0.0,84,0.00,,,0.07,Wunderground v.1.15,2013-09-14 13:50:00,
2013-09-14 10:00:00,50.9,45.9,30.06,NW,325,0.0,0.0,83,0.00,,,0.07,Wunderground v.1.15,2013-09-14 14:00:00,
2013-09-14 10:10:00,51.0,46.0,30.06,SW,219,0.0,0.0,83,0.00,,,0.07,Wunderground v.1.15,2013-09-14 14:10:00,
2013-09-14 10:15:00,51.0,45.7,30.06,West,276,0.0,2.0,82,0.00,,,0.07,Wunderground v.1.15,2013-09-14 14:15:00,
2013-09-14 10:25:00,51.2,45.9,30.06,ESE,120,1.0,1.0,82,0.00,,,0.07,Wunderground v.1.15,2013-09-14 14:25:00,
2013-09-14 10:35:00,51.3,46.0,30.06,SE,139,1.0,1.0,82,0.00,,,0.07,Wunderground v.1.15,2013-09-14 14:35:00,
2013-09-14 10:45:00,51.8,46.5,30.06,ESE,113,1.0,1.0,82,0.00,,,0.07,Wunderground v.1.15,2013-09-14 14:45:00,
2013-09-14 10:55:00,52.5,46.5,30.06,East,94,1.0,2.0,80,0.00,,,0.07,Wunderground v.1.15,2013-09-14 14:55:00,
2013-09-14 11:00:00,52.8,46.8,30.06,ENE,69,1.0,1.0,80,0.00,,,0.07,Wunderground v.1.15,2013-09-14 15:00:00,
2013-09-14 11:10:00,53.6,46.6,30.06,WNW,288,0.0,2.0,77,0.00,,,0.07,Wunderground v.1.15,2013-09-14 15:10:00,
2013-09-14 11:20:00,53.9,46.5,30.06,East,89,1.0,1.0,76,0.00,,,0.07,Wunderground v.1.15,2013-09-14 15:20:00,
2013-09-14 11:25:00,53.9,46.2,30.06,East,89,1.0,1.0,75,0.00,,,0.07,Wunderground v.1.15,2013-09-14 15:25:00,
2013-09-14 11:35:00,54.1,46.3,30.06,ENE,71,1.0,1.0,75,0.00,,,0.07,Wunderground v.1.15,2013-09-14 15:35:00,
2013-09-14 11:45:00,54.3,47.2,30.06,NNW,329,1.0,1.0,77,0.00,,,0.07,Wunderground v.1.15,2013-09-14 15:45:00,
2013-09-14 11:55:00,54.4,46.3,30.06,ESE,102,1.0,1.0,74,0.00,,,0.07,Wunderground v.1.15,2013-09-14 15:55:00,
2013-09-14 12:00:00,54.4,47.3,30.06,NE,39,1.0,1.0,77,0.00,,,0.07,Wunderground v.1.15,2013-09-14 16:00:00,
2013-09-14 12:10:00,54.6,47.2,30.06,ESE,108,0.0,0.0,76,0.00,,,0.07,Wunderground v.1.15,2013-09-14 16:10:00,
2013-09-14 12:15:00,54.7,46.2,30.06,SSE,165,1.0,1.0,73,0.00,,,0.07,Wunderground v.1.15,2013-09-14 16:15:00,
2013-09-14 12:25:00,55.2,47.1,30.06,SE,136,0.0,0.0,74,0.00,,,0.07,Wunderground v.1.15,2013-09-14 16:25:00,
2013-09-14 12:35:00,55.7,47.5,30.06,NE,40,1.0,2.0,74,0.00,,,0.07,Wunderground v.1.15,2013-09-14 16:35:00,
2013-09-14 12:45:00,55.7,46.4,30.06,ESE,116,1.0,1.0,71,0.00,,,0.07,Wunderground v.1.15,2013-09-14 16:45:00,
2013-09-14 12:50:00,55.7,46.4,30.06,West,273,1.0,1.0,71,0.00,,,0.07,Wunderground v.1.15,2013-09-14 16:50:00,
2013-09-14 13:00:00,56.0,47.8,30.06,West,280,0.0,0.0,74,0.00,,,0.07,Wunderground v.1.15,2013-09-14 17:00:00,
2013-09-14 13:10:00,55.8,47.6,30.06,NNW,344,1.0,1.0,74,0.00,,,0.07,Wunderground v.1.15,2013-09-14 17:10:00,
2013-09-14 13:20:00,56.2,48.0,30.06,SE,131,1.0,1.0,74,0.00,,,0.07,Wunderground v.1.15,2013-09-14 17:20:00,
2013-09-14 13:25:00,56.8,46.3,30.06,SE,130,1.0,1.0,68,0.00,,,0.07,Wunderground v.1.15,2013-09-14 17:25:00,
2013-09-14 13:35:00,56.8,46.0,30.06,ENE,65,1.0,1.0,67,0.00,,,0.07,Wunderground v.1.15,2013-09-14 17:35:00,
2013-09-14 13:40:00,56.7,45.9,30.06,NNE,15,1.0,1.0,67,0.00,,,0.07,Wunderground v.1.15,2013-09-14 17:40:00,
2013-09-14 13:50:00,56.5,45.7,30.05,SSW,205,0.0,0.0,67,0.00,,,0.07,Wunderground v.1.15,2013-09-14 17:50:00,
2013-09-14 13:55:00,56.5,46.4,30.05,East,91,1.0,1.0,69,0.00,,,0.07,Wunderground v.1.15,2013-09-14 17:55:00,
2013-09-14 14:00:00,56.6,46.9,30.05,ESE,116,1.0,1.0,70,0.00,,,0.07,Wunderground v.1.15,2013-09-14 18:00:00,
2013-09-14 14:10:00,57.3,47.2,30.05,East,88,0.0,2.0,69,0.00,,,0.07,Wunderground v.1.15,2013-09-14 18:10:00,
2013-09-14 14:20:00,57.9,47.4,30.05,SW,226,1.0,1.0,68,0.00,,,0.07,Wunderground v.1.15,2013-09-14 18:20:00,
2013-09-14 14:30:00,57.9,46.2,30.05,ENE,67,1.0,1.0,65,0.00,,,0.08,Wunderground v.1.15,2013-09-14 18:30:00,
2013-09-14 14:35:00,57.8,45.7,30.05,ENE,61,1.0,1.0,64,0.00,,,0.08,Wunderground v.1.15,2013-09-14 18:35:00,
2013-09-14 14:45:00,57.6,46.3,30.05,East,86,1.0,1.0,66,0.00,,,0.08,Wunderground v.1.15,2013-09-14 18:45:00,
2013-09-14 14:55:00,57.6,45.5,30.05,ESE,109,1.0,1.0,64,0.00,,,0.08,Wunderground v.1.15,2013-09-14 18:55:00,
2013-09-14 15:00:00,57.7,45.6,30.05,South,187,1.0,1.0,64,0.00,,,0.08,Wunderground v.1.15,2013-09-14 19:00:00,
2013-09-14 15:10:00,58.2,45.7,30.04,ENE,64,1.0,1.0,63,0.00,,,0.08,Wunderground v.1.15,2013-09-14 19:10:00,
2013-09-14 15:20:00,58.2,47.3,30.04,NE,54,1.0,1.0,67,0.00,,,0.08,Wunderground v.1.15,2013-09-14 19:20:00,
2013-09-14 15:30:00,58.3,47.0,30.04,SW,233,0.0,0.0,66,0.00,,,0.08,Wunderground v.1.15,2013-09-14 19:30:00,
2013-09-14 15:40:00,58.7,47.0,30.04,WNW,283,1.0,1.0,65,0.00,,,0.08,Wunderground v.1.15,2013-09-14 19:40:00,
2013-09-14 15:50:00,58.5,46.4,30.04,ESE,120,1.0,1.0,64,0.00,,,0.08,Wunderground v.1.15,2013-09-14 19:50:00,
2013-09-14 16:00:00,57.8,46.5,30.03,East,85,2.0,2.0,66,0.00,,,0.08,Wunderground v.1.15,2013-09-14 20:00:00,
2013-09-14 16:10:00,57.1,46.6,30.03,ESE,108,2.0,3.0,68,0.00,,,0.08,Wunderground v.1.15,2013-09-14 20:10:00,
2013-09-14 16:20:00,56.8,47.9,30.03,ESE,119,1.0,2.0,72,0.00,,,0.08,Wunderground v.1.15,2013-09-14 20:20:00,
2013-09-14 16:25:00,56.5,45.7,30.03,SE,146,0.0,2.0,67,0.00,,,0.08,Wunderground v.1.15,2013-09-14 20:25:00,
2013-09-14 16:35:00,56.4,46.7,30.04,ESE,117,1.0,1.0,70,0.00,,,0.08,Wunderground v.1.15,2013-09-14 20:35:00,
2013-09-14 16:45:00,56.1,45.3,30.04,SE,131,1.0,1.0,67,0.00,,,0.08,Wunderground v.1.15,2013-09-14 20:45:00,
2013-09-14 16:55:00,56.1,46.4,30.03,SE,129,1.0,1.0,70,0.00,,,0.08,Wunderground v.1.15,2013-09-14 20:55:00,
2013-09-14 17:00:00,56.1,47.2,30.03,ESE,107,0.0,0.0,72,0.00,,,0.08,Wunderground v.1.15,2013-09-14 21:00:00,
2013-09-14 17:10:00,55.5,47.3,30.03,SW,221,0.0,0.0,74,0.00,,,0.08,Wunderground v.1.15,2013-09-14 21:10:00,
2013-09-14 17:20:00,55.7,46.4,30.03,West,262,0.0,0.0,71,0.00,,,0.08,Wunderground v.1.15,2013-09-14 21:20:00,
2013-09-14 17:30:00,55.7,47.9,30.04,West,277,0.0,1.0,75,0.00,,,0.08,Wunderground v.1.15,2013-09-14 21:30:00,
2013-09-14 17:40:00,55.3,47.2,30.04,WSW,257,1.0,1.0,74,0.00,,,0.08,Wunderground v.1.15,2013-09-14 21:40:00,
2013-09-14 17:50:00,54.9,46.8,30.04,WSW,252,1.0,1.0,74,0.00,,,0.08,Wunderground v.1.15,2013-09-14 21:50:00,
2013-09-14 18:00:00,55.0,46.5,30.04,West,274,1.0,2.0,73,0.00,,,0.08,Wunderground v.1.15,2013-09-14 22:00:00,
2013-09-14 18:10:00,54.7,47.6,30.04,West,265,1.0,1.0,77,0.00,,,0.08,Wunderground v.1.15,2013-09-14 22:10:00,
2013-09-14 18:20:00,54.7,47.6,30.05,West,277,2.0,2.0,77,0.00,,,0.08,Wunderground v.1.15,2013-09-14 22:20:00,
2013-09-14 18:30:00,54.6,47.9,30.05,West,280,2.0,2.0,78,0.00,,,0.08,Wunderground v.1.15,2013-09-14 22:30:00,
2013-09-14 18:40:00,54.6,48.6,30.05,West,280,2.0,2.0,80,0.00,,,0.08,Wunderground v.1.15,2013-09-14 22:40:00,
2013-09-14 18:50:00,54.4,48.0,30.05,West,276,2.0,2.0,79,0.00,,,0.08,Wunderground v.1.15,2013-09-14 22:50:00,
2013-09-14 18:55:00,54.5,49.4,30.05,West,278,2.0,2.0,83,0.00,,,0.08,Wunderground v.1.15,2013-09-14 22:55:00,
2013-09-14 19:00:00,54.4,49.7,30.05,West,281,2.0,3.0,84,0.00,,,0.08,Wunderground v.1.15,2013-09-14 23:00:00,
2013-09-14 19:10:00,53.8,49.4,30.05,West,274,2.0,2.0,85,0.00,,,0.08,Wunderground v.1.15,2013-09-14 23:10:00,
2013-09-14 19:15:00,53.5,49.1,30.05,West,272,2.0,2.0,85,0.00,,,0.08,Wunderground v.1.15,2013-09-14 23:15:00,
2013-09-14 19:25:00,52.9,49.4,30.05,West,276,3.0,3.0,88,0.00,,,0.08,Wunderground v.1.15,2013-09-14 23:25:00,
2013-09-14 19:30:00,52.4,48.9,30.05,WNW,284,3.0,3.0,88,0.00,,,0.08,Wunderground v.1.15,2013-09-14 23:30:00,
2013-09-14 19:40:00,51.9,48.8,30.05,West,276,3.0,3.0,89,0.00,,,0.08,Wunderground v.1.15,2013-09-14 23:40:00,
2013-09-14 19:50:00,51.5,48.4,30.05,West,276,3.0,3.0,89,0.00,,,0.08,Wunderground v.1.15,2013-09-14 23:50:00,
2013-09-14 20:00:00,51.4,48.3,30.06,West,276,3.0,3.0,89,0.00,,,0.08,Wunderground v.1.15,2013-09-15 00:00:00,
2013-09-14 20:05:00,51.3,48.5,30.06,West,281,3.0,3.0,90,0.00,,,0.08,Wunderground v.1.15,2013-09-15 00:05:00,
2013-09-14 20:15:00,51.2,48.4,30.07,West,276,3.0,3.0,90,0.00,,,0.08,Wunderground v.1.15,2013-09-15 00:15:00,
2013-09-14 20:20:00,51.2,48.4,30.07,West,277,2.0,2.0,90,0.00,,,0.08,Wunderground v.1.15,2013-09-15 00:20:00,
2013-09-14 20:30:00,51.0,48.2,30.07,West,279,3.0,3.0,90,0.00,,,0.08,Wunderground v.1.15,2013-09-15 00:30:00,
2013-09-14 20:35:00,50.8,47.7,30.07,West,281,2.0,3.0,89,0.00,,,0.08,Wunderground v.1.15,2013-09-15 00:35:00,
2013-09-14 20:45:00,50.2,47.4,30.08,West,281,1.0,2.0,90,0.00,,,0.08,Wunderground v.1.15,2013-09-15 00:45:00,
2013-09-14 20:55:00,49.7,46.9,30.08,West,278,0.0,1.0,90,0.00,,,0.08,Wunderground v.1.15,2013-09-15 00:55:00,
2013-09-14 21:00:00,49.4,46.6,30.08,West,274,1.0,1.0,90,0.00,,,0.08,Wunderground v.1.15,2013-09-15 01:00:00,
2013-09-14 21:10:00,49.3,46.5,30.08,West,260,2.0,2.0,90,0.00,,,0.08,Wunderground v.1.15,2013-09-15 01:10:00,
2013-09-14 21:20:00,49.2,46.7,30.09,West,277,2.0,2.0,91,0.00,,,0.08,Wunderground v.1.15,2013-09-15 01:20:00,
2013-09-14 21:30:00,49.5,46.7,30.09,West,274,2.0,2.0,90,0.00,,,0.08,Wunderground v.1.15,2013-09-15 01:30:00,
2013-09-14 21:40:00,48.6,45.8,30.09,West,281,2.0,3.0,90,0.00,,,0.08,Wunderground v.1.15,2013-09-15 01:40:00,
2013-09-14 21:45:00,48.7,45.9,30.09,WNW,284,2.0,3.0,90,0.00,,,0.08,Wunderground v.1.15,2013-09-15 01:45:00,
2013-09-14 21:55:00,49.1,46.6,30.09,West,277,1.0,2.0,91,0.00,,,0.08,Wunderground v.1.15,2013-09-15 01:55:00,
2013-09-14 22:00:00,48.6,45.5,30.09,West,273,1.0,1.0,89,0.00,,,0.08,Wunderground v.1.15,2013-09-15 02:00:00,
2013-09-14 22:10:00,47.7,44.9,30.09,West,279,2.0,2.0,90,0.00,,,0.08,Wunderground v.1.15,2013-09-15 02:10:00,
2013-09-14 22:20:00,47.4,44.9,30.09,West,280,2.0,2.0,91,0.00,,,0.08,Wunderground v.1.15,2013-09-15 02:20:00,
2013-09-14 22:30:00,46.9,44.4,30.09,West,269,2.0,2.0,91,0.00,,,0.08,Wunderground v.1.15,2013-09-15 02:30:00,
2013-09-14 22:40:00,46.4,44.5,30.09,WNW,285,2.0,3.0,93,0.00,,,0.08,Wunderground v.1.15,2013-09-15 02:40:00,
2013-09-14 22:50:00,46.6,44.7,30.09,West,274,2.0,2.0,93,0.00,,,0.08,Wunderground v.1.15,2013-09-15 02:50:00,
2013-09-14 22:55:00,46.7,44.5,30.10,WNW,291,2.0,2.0,92,0.00,,,0.08,Wunderground v.1.15,2013-09-15 02:55:00,
2013-09-14 23:00:00,46.9,44.7,30.09,NW,311,2.0,2.0,92,0.00,,,0.08,Wunderground v.1.15,2013-09-15 03:00:00,
2013-09-14 23:10:00,46.7,44.2,30.10,West,281,2.0,3.0,91,0.00,,,0.08,Wunderground v.1.15,2013-09-15 03:10:00,
2013-09-14 23:15:00,46.4,44.2,30.10,West,279,2.0,3.0,92,0.00,,,0.08,Wunderground v.1.15,2013-09-15 03:15:00,
2013-09-14 23:25:00,46.1,43.9,30.10,West,276,2.0,2.0,92,0.00,,,0.08,Wunderground v.1.15,2013-09-15 03:25:00,
2013-09-14 23:30:00,46.2,44.3,30.10,West,271,2.0,2.0,93,0.00,,,0.08,Wunderground v.1.15,2013-09-15 03:30:00,
2013-09-14 23:40:00,46.1,44.2,30.10,West,276,2.0,2.0,93,0.00,,,0.08,Wunderground v.1.15,2013-09-15 03:40:00,
2013-09-14 23:45:00,46.0,43.8,30.10,West,262,2.0,2.0,92,0.00,,,0.08,Wunderground v.1.15,2013-09-15 03:45:00,
2013-09-14 23:55:00,45.7,43.8,30.10,West,279,2.0,2.0,93,0.00,,,0.08,Wunderground v.1.15,2013-09-15 03:55:00,